createdAt,value
2018-05-03T00:01:10.259Z,97713.42
2018-05-03T00:03:38.543Z,97713.16
2018-05-03T00:06:06.832Z,97710.38
2018-05-03T00:08:35.159Z,97713.82
2018-05-03T00:11:04.200Z,97717.44
2018-05-03T00:13:32.475Z,97726.88
2018-05-03T00:16:00.882Z,97724.47
2018-05-03T00:18:29.347Z,97720.38
2018-05-03T00:20:57.635Z,97722.34
2018-05-03T00:23:26.251Z,97728.23
2018-05-03T00:25:54.966Z,97726.41
2018-05-03T00:28:24.119Z,97734.66
2018-05-03T00:30:52.514Z,97742.09
2018-05-03T00:33:20.847Z,97733.23
2018-05-03T00:35:49.245Z,97727.30
2018-05-03T00:38:17.566Z,97722.42
2018-05-03T00:40:46.161Z,97724.23
2018-05-03T00:43:14.494Z,97724.43
2018-05-03T00:45:42.854Z,97730.94
2018-05-03T00:48:11.555Z,97729.11
2018-05-03T00:50:39.843Z,97728.27
2018-05-03T00:53:08.858Z,97723.64
2018-05-03T00:55:37.134Z,97726.89
2018-05-03T00:58:05.742Z,97730.41
2018-05-03T01:00:34.221Z,97720.78
2018-05-03T01:03:03.295Z,97722.87
2018-05-03T01:05:32.426Z,97726.94
2018-05-03T01:08:00.766Z,97719.11
2018-05-03T01:10:29.267Z,97721.80
2018-05-03T01:12:57.559Z,97720.73
2018-05-03T01:15:25.874Z,97729.84
2018-05-03T01:17:54.178Z,97722.14
2018-05-03T01:20:23.147Z,97733.61
2018-05-03T01:22:51.871Z,97730.73
2018-05-03T01:25:20.146Z,97726.51
2018-05-03T01:27:48.481Z,97730.43
2018-05-03T01:30:16.775Z,97730.23
2018-05-03T01:32:45.063Z,97735.03
2018-05-03T01:48:52.902Z,97738.01
2018-05-03T01:51:21.186Z,97743.39
2018-05-03T01:53:49.479Z,97748.69
2018-05-03T01:56:17.823Z,97753.88
2018-05-03T01:58:46.105Z,97752.80
2018-05-03T02:01:14.400Z,97748.80
2018-05-03T02:03:42.730Z,97750.66
2018-05-03T02:06:11.011Z,97748.40
2018-05-03T02:08:39.299Z,97752.11
2018-05-03T02:11:07.614Z,97752.51
2018-05-03T02:13:35.910Z,97747.11
2018-05-03T02:16:04.222Z,97751.52
2018-05-03T02:18:32.555Z,97747.57
2018-05-03T02:21:01.230Z,97755.80
2018-05-03T02:23:29.574Z,97758.45
2018-05-03T02:25:57.895Z,97755.58
2018-05-03T02:28:26.191Z,97743.78
2018-05-03T02:30:54.477Z,97741.61
2018-05-03T02:33:22.816Z,97733.77
2018-05-03T02:35:51.028Z,97737.70
2018-05-03T02:38:19.404Z,97730.82
2018-05-03T02:40:48.495Z,97735.22
2018-05-03T02:43:16.787Z,97737.58
2018-05-03T02:45:45.839Z,97739.55
2018-05-03T02:48:14.171Z,97735.31
2018-05-03T02:50:43.043Z,97744.33
2018-05-03T02:53:11.778Z,97742.99
2018-05-03T02:55:40.115Z,97740.83
2018-05-03T02:58:26.575Z,97732.33
2018-05-03T03:01:17.866Z,97730.47
2018-05-03T03:04:09.413Z,97723.87
2018-05-03T03:06:54.763Z,97722.03
2018-05-03T03:09:47.762Z,97729.48
2018-05-03T03:27:06.247Z,97730.40
2018-05-03T03:29:52.058Z,97734.44
2018-05-03T03:32:37.991Z,97743.45
2018-05-03T03:38:49.141Z,97752.27
2018-05-03T03:41:34.932Z,97757.90
2018-05-03T03:44:20.923Z,97755.44
2018-05-03T03:46:49.213Z,97752.02
2018-05-03T03:49:17.490Z,97756.23
2018-05-03T03:51:45.810Z,97750.90
2018-05-03T03:54:14.095Z,97755.30
2018-05-03T03:56:43.175Z,97754.59
2018-05-03T03:59:11.984Z,97759.77
2018-05-03T04:01:40.256Z,97751.28
2018-05-03T04:04:08.554Z,97753.81
2018-05-03T04:06:36.870Z,97760.38
2018-05-03T04:09:05.150Z,97766.58
2018-05-03T04:11:33.622Z,97768.94
2018-05-03T04:14:01.985Z,97769.42
2018-05-03T04:16:30.268Z,97780.33
2018-05-03T04:19:16.008Z,97781.59
2018-05-03T04:22:01.763Z,97780.80
2018-05-03T04:38:11.157Z,97787.28
2018-05-03T04:40:39.446Z,97791.87
2018-05-03T04:43:07.751Z,97794.49
2018-05-03T04:45:36.418Z,97796.95
2018-05-03T04:48:05.022Z,97802.30
2018-05-03T04:50:33.334Z,97807.74
2018-05-03T04:53:01.619Z,97808.44
2018-05-03T04:55:29.943Z,97808.49
2018-05-03T04:57:58.235Z,97804.04
2018-05-03T05:00:26.878Z,97806.84
2018-05-03T05:02:55.207Z,97805.98
2018-05-03T05:05:24.964Z,97812.50
2018-05-03T05:07:53.498Z,97808.53
2018-05-03T05:10:21.806Z,97814.04
2018-05-03T05:12:50.666Z,97825.02
2018-05-03T05:15:19.357Z,97825.02
2018-05-03T05:17:47.799Z,97820.95
2018-05-03T05:20:16.147Z,97819.70
2018-05-03T05:22:44.614Z,97813.63
2018-05-03T05:25:12.916Z,97822.67
2018-05-03T05:27:42.002Z,97824.92
2018-05-03T05:30:10.311Z,97825.70
2018-05-03T05:32:38.610Z,97834.92
2018-05-03T05:35:07.170Z,97837.14
2018-05-03T05:37:35.458Z,97844.61
2018-05-03T05:40:03.623Z,97847.53
2018-05-03T05:42:31.711Z,97844.14
2018-05-03T05:45:00.075Z,97838.17
2018-05-03T05:47:28.504Z,97849.92
2018-05-03T05:49:56.867Z,97851.45
2018-05-03T05:52:25.142Z,97855.53
2018-05-03T05:54:54.014Z,97851.63
2018-05-03T05:57:23.047Z,97853.56
2018-05-03T05:59:52.119Z,97854.37
2018-05-03T06:02:20.598Z,97867.83
2018-05-03T06:04:48.915Z,97871.20
2018-05-03T06:07:17.676Z,97866.55
2018-05-03T06:09:45.965Z,97865.59
2018-05-03T06:12:14.610Z,97872.59
2018-05-03T06:14:43.671Z,97878.55
2018-05-03T06:17:12.842Z,97875.34
2018-05-03T06:19:41.987Z,97883.50
2018-05-03T06:22:10.963Z,97877.23
2018-05-03T06:24:39.250Z,97880.56
2018-05-03T06:27:07.639Z,97878.08
2018-05-03T06:29:36.270Z,97879.38
2018-05-03T06:32:04.858Z,97883.05
2018-05-03T06:34:33.715Z,97882.54
2018-05-03T06:37:02.000Z,97884.86
2018-05-03T06:39:30.290Z,97891.55
2018-05-03T06:41:58.799Z,97898.05
2018-05-03T06:44:27.079Z,97896.69
2018-05-03T06:46:56.186Z,97899.08
2018-05-03T06:49:24.951Z,97902.96
2018-05-03T06:51:54.219Z,97904.78
2018-05-03T06:54:22.358Z,97903.97
2018-05-03T06:56:50.612Z,97904.95
2018-05-03T06:59:18.952Z,97905.83
2018-05-03T07:01:47.306Z,97911.02
2018-05-03T07:04:15.743Z,97908.00
2018-05-03T07:06:43.838Z,97909.39
2018-05-03T07:09:12.122Z,97908.59
2018-05-03T07:11:41.139Z,97911.20
2018-05-03T07:14:09.519Z,97920.18
2018-05-03T07:16:37.932Z,97923.36
2018-05-03T07:19:07.597Z,97918.08
2018-05-03T07:21:36.167Z,97920.11
2018-05-03T07:24:04.891Z,97922.39
2018-05-03T07:26:33.342Z,97923.52
2018-05-03T07:29:01.765Z,97923.30
2018-05-03T07:31:30.450Z,97917.75
2018-05-03T07:33:58.854Z,97925.25
2018-05-03T07:36:27.173Z,97926.77
2018-05-03T07:38:55.539Z,97927.37
2018-05-03T07:41:24.178Z,97921.79
2018-05-03T07:43:53.238Z,97928.45
2018-05-03T07:46:23.062Z,97931.43
2018-05-03T07:48:51.950Z,97934.33
2018-05-03T07:51:21.042Z,97938.94
2018-05-03T07:53:50.178Z,97938.19
2018-05-03T07:56:19.173Z,97941.51
2018-05-03T07:58:48.654Z,97945.13
2018-05-03T08:01:19.310Z,97933.82
2018-05-03T08:03:47.598Z,97944.86
2018-05-03T08:06:16.530Z,97943.93
2018-05-03T08:08:45.739Z,97942.98
2018-05-03T08:11:14.851Z,97942.04
2018-05-03T08:13:43.598Z,97940.84
2018-05-03T08:16:13.067Z,97947.64
2018-05-03T08:18:41.609Z,97951.89
2018-05-03T08:21:09.936Z,97944.66
2018-05-03T08:23:38.219Z,97952.57
2018-05-03T08:26:07.692Z,97960.09
2018-05-03T08:28:36.252Z,97957.79
2018-05-03T08:31:04.962Z,97950.45
2018-05-03T08:33:33.650Z,97949.20
2018-05-03T08:36:02.276Z,97954.35
2018-05-03T08:38:30.565Z,97965.43
2018-05-03T08:40:58.846Z,97964.85
2018-05-03T08:43:27.167Z,97965.62
2018-05-03T08:45:55.465Z,97968.44
2018-05-03T08:48:23.751Z,97977.10
2018-05-03T08:50:52.418Z,97981.94
2018-05-03T08:53:20.735Z,97985.86
2018-05-03T08:55:49.056Z,97979.34
2018-05-03T08:58:17.359Z,97983.37
2018-05-03T09:00:46.298Z,97983.92
2018-05-03T09:03:14.589Z,97980.70
2018-05-03T09:05:42.898Z,97993.23
2018-05-03T09:08:11.184Z,97997.34
2018-05-03T09:10:40.277Z,98000.79
2018-05-03T09:13:09.047Z,97996.86
2018-05-03T09:15:38.463Z,97991.31
2018-05-03T09:18:07.567Z,97985.73
2018-05-03T09:20:35.858Z,97985.03
2018-05-03T09:23:04.204Z,97985.42
2018-05-03T09:25:32.350Z,97979.84
2018-05-03T09:28:00.631Z,97977.14
2018-05-03T09:30:28.910Z,97987.17
2018-05-03T09:32:57.470Z,97984.45
2018-05-03T09:35:26.035Z,97992.88
2018-05-03T09:37:54.599Z,97990.02
2018-05-03T09:40:23.553Z,97986.24
2018-05-03T09:42:51.833Z,97984.95
2018-05-03T09:45:20.143Z,97986.28
2018-05-03T09:47:48.439Z,97991.47
2018-05-03T09:50:16.775Z,97988.47
2018-05-03T09:52:45.075Z,97998.22
2018-05-03T09:55:13.359Z,97995.02
2018-05-03T09:57:41.687Z,97996.44
2018-05-03T10:00:09.966Z,97992.44
2018-05-03T10:02:38.255Z,98003.11
2018-05-03T10:05:06.587Z,97990.08
2018-05-03T10:07:34.894Z,98003.81
2018-05-03T10:10:03.178Z,98004.70
2018-05-03T10:12:31.632Z,98000.11
2018-05-03T10:14:59.911Z,98004.36
2018-05-03T10:17:28.198Z,98003.94
2018-05-03T10:19:56.507Z,98005.75
2018-05-03T10:22:24.796Z,98005.95
2018-05-03T10:24:53.302Z,98005.59
2018-05-03T10:27:22.132Z,98004.14
2018-05-03T10:29:50.580Z,98006.34
2018-05-03T10:32:19.331Z,98009.85
2018-05-03T10:34:47.623Z,98009.69
2018-05-03T10:37:16.658Z,98004.20
2018-05-03T10:39:45.031Z,98001.05
2018-05-03T10:42:13.324Z,98003.89
2018-05-03T10:44:41.784Z,98010.98
2018-05-03T10:47:11.471Z,98007.45
2018-05-03T10:49:39.750Z,98005.30
2018-05-03T10:52:08.278Z,98008.80
2018-05-03T10:54:37.291Z,98007.20
2018-05-03T10:57:06.241Z,98002.66
2018-05-03T10:59:34.693Z,97999.25
2018-05-03T11:02:04.574Z,98012.81
2018-05-03T11:04:32.866Z,98005.98
2018-05-03T11:07:01.471Z,98001.56
2018-05-03T11:09:30.599Z,97999.64
2018-05-03T11:11:59.306Z,98003.72
2018-05-03T11:14:27.772Z,98004.64
2018-05-03T11:16:55.866Z,98011.23
2018-05-03T11:19:24.160Z,98008.29
2018-05-03T11:21:52.541Z,98001.08
2018-05-03T11:24:20.826Z,98004.49
2018-05-03T11:26:49.288Z,98008.91
2018-05-03T11:29:18.221Z,98011.75
2018-05-03T11:31:46.506Z,98013.49
2018-05-03T11:34:15.161Z,98024.72
2018-05-03T11:36:43.568Z,98024.56
2018-05-03T11:39:13.598Z,98018.39
2018-05-03T11:41:42.547Z,98013.88
2018-05-03T11:44:11.199Z,98012.95
2018-05-03T11:46:39.698Z,98008.73
2018-05-03T11:49:08.101Z,98005.16
2018-05-03T11:51:37.900Z,97998.61
2018-05-03T11:54:06.291Z,97999.34
2018-05-03T11:56:35.343Z,97998.30
2018-05-03T11:59:03.681Z,97996.81
2018-05-03T12:01:31.983Z,97993.09
2018-05-03T12:04:00.784Z,97990.31
2018-05-03T12:06:29.170Z,97993.08
2018-05-03T12:08:57.975Z,97992.66
2018-05-03T12:11:26.638Z,97988.48
2018-05-03T12:13:54.921Z,97985.63
2018-05-03T12:16:24.271Z,97982.99
2018-05-03T12:18:53.330Z,97988.70
2018-05-03T12:21:21.623Z,97987.87
2018-05-03T12:23:49.967Z,97984.98
2018-05-03T12:26:18.247Z,97988.37
2018-05-03T12:28:46.715Z,97987.55
2018-05-03T12:31:15.052Z,97982.33
2018-05-03T12:33:43.557Z,97980.58
2018-05-03T12:36:13.135Z,97979.14
2018-05-03T12:38:41.318Z,97972.27
2018-05-03T12:41:09.887Z,97963.60
2018-05-03T12:43:39.025Z,97957.11
2018-05-03T12:46:07.071Z,97967.31
2018-05-03T12:48:35.362Z,97965.47
2018-05-03T12:51:03.696Z,97965.08
2018-05-03T12:53:31.980Z,97964.43
2018-05-03T12:56:00.226Z,97960.88
2018-05-03T12:58:28.479Z,97964.48
2018-05-03T13:00:57.018Z,97954.06
2018-05-03T13:03:25.064Z,97957.32
2018-05-03T13:05:53.402Z,97957.87
2018-05-03T13:08:22.219Z,97958.80
2018-05-03T13:10:50.500Z,97961.38
2018-05-03T13:13:19.316Z,97951.51
2018-05-03T13:15:48.107Z,97949.74
2018-05-03T13:18:16.397Z,97956.34
2018-05-03T13:20:44.686Z,97957.02
2018-05-03T13:23:13.407Z,97959.84
2018-05-03T13:25:41.894Z,97953.78
2018-05-03T13:28:10.183Z,97957.09
2018-05-03T13:30:38.789Z,97963.05
2018-05-03T13:33:07.087Z,97972.52
2018-05-03T13:35:35.375Z,97962.09
2018-05-03T13:38:04.242Z,97965.27
2018-05-03T13:40:32.518Z,97957.33
2018-05-03T13:43:00.852Z,97951.73
2018-05-03T13:45:29.243Z,97963.44
2018-05-03T13:47:57.628Z,97952.63
2018-05-03T13:50:25.915Z,97948.55
2018-05-03T13:52:54.300Z,97946.04
2018-05-03T13:55:23.061Z,97944.16
2018-05-03T13:57:51.488Z,97934.12
2018-05-03T14:00:21.171Z,97936.59
2018-05-03T14:02:49.754Z,97935.19
2018-05-03T14:05:19.566Z,97938.30
2018-05-03T14:07:48.327Z,97938.34
2018-05-03T14:10:17.091Z,97935.58
2018-05-03T14:12:46.030Z,97933.85
2018-05-03T14:15:15.130Z,97934.22
2018-05-03T14:17:45.576Z,97932.89
2018-05-03T14:20:14.091Z,97931.55
2018-05-03T14:22:42.288Z,97940.61
2018-05-03T14:25:10.652Z,97931.15
2018-05-03T14:27:39.783Z,97926.34
2018-05-03T14:30:08.411Z,97924.83
2018-05-03T14:32:38.715Z,97932.34
2018-05-03T14:35:06.906Z,97929.84
2018-05-03T14:37:36.042Z,97934.45
2018-05-03T14:40:05.190Z,97931.76
2018-05-03T14:42:33.501Z,97934.91
2018-05-03T14:45:01.839Z,97923.74
2018-05-03T14:47:30.186Z,97938.97
2018-05-03T14:49:58.472Z,97937.53
2018-05-03T14:52:26.751Z,97944.30
2018-05-03T14:54:55.091Z,97945.06
2018-05-03T14:57:23.375Z,97946.98
2018-05-03T14:59:51.663Z,97948.31
2018-05-03T15:02:20.023Z,97939.62
2018-05-03T15:04:48.623Z,97948.42
2018-05-03T15:07:16.968Z,97944.41
2018-05-03T15:09:45.315Z,97949.80
2018-05-03T15:12:13.595Z,97956.26
2018-05-03T15:14:41.959Z,97942.20
2018-05-03T15:17:10.137Z,97946.98
2018-05-03T15:19:38.370Z,97951.22
2018-05-03T15:22:06.663Z,97948.36
2018-05-03T15:24:35.067Z,97948.95
2018-05-03T15:27:03.395Z,97947.30
2018-05-03T15:29:31.678Z,97943.50
2018-05-03T15:31:59.964Z,97945.13
2018-05-03T15:34:28.279Z,97943.27
2018-05-03T15:36:56.567Z,97939.90
2018-05-03T15:39:24.842Z,97942.28
2018-05-03T15:41:53.187Z,97938.13
2018-05-03T15:44:21.603Z,97939.75
2018-05-03T15:46:51.074Z,97936.91
2018-05-03T15:49:19.190Z,97948.87
2018-05-03T15:51:47.486Z,97937.02
2018-05-03T15:54:15.787Z,97934.91
2018-05-03T15:56:44.125Z,97936.93
2018-05-03T15:59:12.799Z,97933.55
2018-05-03T16:01:41.118Z,97936.16
2018-05-03T16:04:09.434Z,97928.78
2018-05-03T16:06:38.227Z,97935.22
2018-05-03T16:09:07.316Z,97932.84
2018-05-03T16:11:35.982Z,97932.97
2018-05-03T16:14:04.747Z,97927.42
2018-05-03T16:16:33.031Z,97922.45
2018-05-03T16:19:01.321Z,97923.13
2018-05-03T16:21:29.636Z,97927.27
2018-05-03T16:23:57.915Z,97929.91
2018-05-03T16:26:26.207Z,97928.36
2018-05-03T16:28:54.510Z,97922.11
2018-05-03T16:31:22.798Z,97928.89
2018-05-03T16:33:51.086Z,97933.53
2018-05-03T16:36:19.426Z,97930.45
2018-05-03T16:38:48.152Z,97934.59
2018-05-03T16:41:16.439Z,97939.93
2018-05-03T16:43:44.782Z,97945.03
2018-05-03T16:46:13.079Z,97943.14
2018-05-03T16:48:41.660Z,97946.16
2018-05-03T16:51:09.991Z,97944.17
2018-05-03T16:53:38.275Z,97950.08
2018-05-03T16:56:07.043Z,97966.59
2018-05-03T16:58:35.366Z,97955.37
2018-05-03T17:01:04.627Z,97956.11
2018-05-03T17:03:32.911Z,97951.67
2018-05-03T17:06:01.250Z,97957.59
2018-05-03T17:08:29.528Z,97952.35
2018-05-03T17:10:58.502Z,97947.19
2018-05-03T17:13:27.322Z,97956.94
2018-05-03T17:15:56.532Z,97945.98
2018-05-03T17:18:24.859Z,97947.52
2018-05-03T17:20:53.142Z,97959.62
2018-05-03T17:23:21.439Z,97958.03
2018-05-03T17:25:49.830Z,97968.39
2018-05-03T17:28:18.136Z,97962.95
2018-05-03T17:30:46.444Z,97962.94
2018-05-03T17:33:14.770Z,97963.23
2018-05-03T17:35:43.689Z,97964.11
2018-05-03T17:38:11.978Z,97965.86
2018-05-03T17:40:41.030Z,97971.88
2018-05-03T17:43:09.341Z,97975.91
2018-05-03T17:45:38.255Z,97977.73
2018-05-03T17:48:06.607Z,97982.48
2018-05-03T17:50:34.937Z,97988.27
2018-05-03T17:53:03.607Z,97978.17
2018-05-03T17:55:31.905Z,97989.50
2018-05-03T17:58:00.187Z,97990.75
2018-05-03T18:00:28.498Z,97992.25
2018-05-03T18:02:56.779Z,97997.14
2018-05-03T18:05:25.059Z,98000.58
2018-05-03T18:07:54.132Z,98001.36
2018-05-03T18:10:22.415Z,98010.88
2018-05-03T18:12:50.734Z,98016.89
2018-05-03T18:15:20.389Z,98015.87
2018-05-03T18:17:48.730Z,98015.22
2018-05-03T18:20:17.014Z,98019.67
2018-05-03T18:22:45.291Z,98018.17
2018-05-03T18:25:13.674Z,98023.11
2018-05-03T18:27:42.475Z,98026.95
2018-05-03T18:30:10.703Z,98033.39
2018-05-03T18:32:39.156Z,98031.50
2018-05-03T18:35:07.847Z,98036.22
2018-05-03T18:37:37.922Z,98042.14
2018-05-03T18:40:06.258Z,98044.23
2018-05-03T18:42:35.586Z,98046.30
2018-05-03T18:45:04.527Z,98046.38
2018-05-03T18:47:33.295Z,98051.45
2018-05-03T18:50:01.983Z,98053.61
2018-05-03T18:52:30.263Z,98058.92
2018-05-03T18:54:58.567Z,98052.77
2018-05-03T18:57:27.581Z,98057.99
2018-05-03T18:59:56.086Z,98060.91
2018-05-03T19:02:24.376Z,98062.29
2018-05-03T19:04:53.033Z,98064.41
2018-05-03T19:07:21.475Z,98069.45
2018-05-03T19:09:50.614Z,98076.17
2018-05-03T19:12:18.911Z,98078.06
2018-05-03T19:14:47.187Z,98076.00
2018-05-03T19:17:15.970Z,98081.95
2018-05-03T19:19:44.383Z,98092.29
2018-05-03T19:22:12.703Z,98090.28
2018-05-03T19:24:42.111Z,98088.14
2018-05-03T19:27:10.610Z,98092.53
2018-05-03T19:29:39.229Z,98095.44
2018-05-03T19:32:07.519Z,98094.16
2018-05-03T19:34:35.943Z,98097.70
2018-05-03T19:37:04.522Z,98097.45
2018-05-03T19:39:32.810Z,98103.90
2018-05-03T19:42:01.841Z,98101.54
2018-05-03T19:44:31.248Z,98112.52
2018-05-03T19:46:59.615Z,98103.13
2018-05-03T19:49:27.927Z,98114.14
2018-05-03T19:51:57.007Z,98115.94
2018-05-03T19:54:25.520Z,98115.50
2018-05-03T19:56:54.310Z,98114.98
2018-05-03T19:59:23.434Z,98116.94
2018-05-03T20:01:51.712Z,98118.80
2018-05-03T20:04:20.211Z,98120.86
2018-05-03T20:06:48.507Z,98119.45
2018-05-03T20:09:16.827Z,98120.47
2018-05-03T20:11:45.753Z,98120.54
2018-05-03T20:14:14.058Z,98122.75
2018-05-03T20:16:43.104Z,98122.16
2018-05-03T20:19:11.453Z,98126.91
2018-05-03T20:21:40.512Z,98114.11
2018-05-03T20:24:09.038Z,98117.62
2018-05-03T20:26:38.126Z,98122.76
2018-05-03T20:29:07.184Z,98117.11
2018-05-03T20:31:35.471Z,98119.03
2018-05-03T20:34:04.178Z,98123.78
2018-05-03T20:36:32.466Z,98122.22
2018-05-03T20:39:00.840Z,98113.31
2018-05-03T20:41:29.306Z,98119.86
2018-05-03T20:43:59.488Z,98111.14
2018-05-03T20:46:28.516Z,98105.40
2018-05-03T20:48:56.959Z,98102.47
2018-05-03T20:51:26.444Z,98108.23
2018-05-03T20:53:55.140Z,98103.31
2018-05-03T20:56:23.891Z,98109.28
2018-05-03T20:58:52.235Z,98111.86
2018-05-03T21:01:21.082Z,98104.02
2018-05-03T21:03:49.650Z,98104.91
2018-05-03T21:06:18.628Z,98106.26
2018-05-03T21:08:48.639Z,98106.55
2018-05-03T21:11:17.871Z,98110.52
2018-05-03T21:13:46.599Z,98117.52
2018-05-03T21:16:16.020Z,98122.23
2018-05-03T21:18:44.691Z,98121.33
2018-05-03T21:21:12.966Z,98120.02
2018-05-03T21:23:41.279Z,98123.50
2018-05-03T21:26:12.079Z,98121.62
2018-05-03T21:28:40.502Z,98119.94
2018-05-03T21:31:09.063Z,98135.11
2018-05-03T21:33:37.925Z,98136.97
2018-05-03T21:36:06.205Z,98141.47
2018-05-03T21:38:34.478Z,98140.48
2018-05-03T21:41:02.898Z,98142.77
2018-05-03T21:43:31.180Z,98149.50
2018-05-03T21:45:59.463Z,98147.84
2018-05-03T21:48:27.855Z,98144.17
2018-05-03T21:50:55.948Z,98149.58
2018-05-03T21:53:24.235Z,98148.34
2018-05-03T21:55:53.205Z,98152.95
2018-05-03T21:58:21.488Z,98155.92
2018-05-03T22:00:49.918Z,98150.23
2018-05-03T22:03:18.323Z,98156.55
2018-05-03T22:05:47.290Z,98149.28
2018-05-03T22:08:15.934Z,98151.03
2018-05-03T22:10:44.259Z,98155.47
2018-05-03T22:13:12.930Z,98151.58
2018-05-03T22:15:41.794Z,98156.73
2018-05-03T22:18:10.133Z,98158.70
2018-05-03T22:20:38.426Z,98153.57
2018-05-03T22:23:06.715Z,98160.89
2018-05-03T22:25:35.406Z,98165.08
2018-05-03T22:28:04.238Z,98165.86
2018-05-03T22:30:32.517Z,98168.68
2018-05-03T22:33:01.066Z,98166.61
2018-05-03T22:35:29.339Z,98174.23
2018-05-03T22:37:57.987Z,98178.56
2018-05-03T22:40:26.278Z,98184.39
2018-05-03T22:42:54.562Z,98185.08
2018-05-03T22:45:23.103Z,98183.55
2018-05-03T22:47:51.379Z,98189.73
2018-05-03T22:50:19.762Z,98195.39
2018-05-03T22:52:48.078Z,98196.15
2018-05-03T22:55:17.010Z,98197.11
2018-05-03T22:57:45.298Z,98195.44
2018-05-03T23:00:13.602Z,98193.47
2018-05-03T23:02:41.874Z,98200.12
2018-05-03T23:05:11.033Z,98202.29
2018-05-03T23:07:39.690Z,98193.48
2018-05-03T23:10:07.975Z,98192.59
2018-05-03T23:12:36.308Z,98190.08
2018-05-03T23:15:04.598Z,98189.78
2018-05-03T23:17:33.271Z,98185.05
2018-05-03T23:20:01.673Z,98182.83
2018-05-03T23:22:33.939Z,98178.03
2018-05-03T23:25:02.282Z,98171.89
2018-05-03T23:27:30.593Z,98171.20
2018-05-03T23:30:00.194Z,98167.83
2018-05-03T23:32:28.687Z,98163.68
2018-05-03T23:34:57.083Z,98159.77
2018-05-03T23:37:25.379Z,98166.36
2018-05-03T23:39:53.902Z,98173.38
2018-05-03T23:42:22.366Z,98170.01
2018-05-03T23:44:50.740Z,98173.45
2018-05-03T23:47:19.064Z,98172.59
2018-05-03T23:49:47.838Z,98168.91
2018-05-03T23:52:16.379Z,98165.47
2018-05-03T23:54:44.719Z,98167.92
2018-05-03T23:57:13.008Z,98165.44
2018-05-03T23:59:41.582Z,98161.87
